Details From LJLJ - Ljubljana
To LJPZ - Portoroz
Flight Number -
Tags Decoded
Created
Modified
Stats Distance 83 nm / 154 km
Max Altitude 0 ft / 0 m
Waypoints 6
Social Downloads 1
Likes 0
Share VATSIM

Download

Looking for another format? Having issues loading an existing format? Contact us
Advertisement - Login to hide

Notes

Decoded

Route

LJLJ REBRO NANIS IPINO BARPI LJPZ

ID Type Via Altitude Latitude Longitude Leg Dist Tot Dist Heading (true) Name
O LJLJ APT - 0 ft / 0 m 46.23249˚ 14.44039˚ - 0 nm - -
REBRO FIX - 0 ft / 0 m 46.11284˚ 14.37304˚ 7 nm 7 nm 201° / 201° -
NANIS FIX - 0 ft / 0 m 45.79099˚ 14.03297˚ 23 nm 31 nm 216° / 216° -
IPINO FIX - 0 ft / 0 m 45.70722˚ 13.28417˚ 31 nm 63 nm 261° / 261° -
BARPI FIX - 0 ft / 0 m 45.58581˚ 13.52286˚ 12 nm 75 nm 126° / 126° -
O LJPZ APT - 0 ft / 0 m 45.47718˚ 13.61198˚ 7 nm 83 nm 150° / 150° -

Altitude Profile

Advertisement - Login to hide

LJLJ

Details ICAO LJLJ (LJU)
Name LJUBLJANA
Region Slovenia
Timezone Europe/Ljubljana (UTC+2.0)
Stats Elevation 1,273 ft / 388 m (AMSL)
Location 46.223685° 14.457608°
Runways 1
Magnetic Variation 3.712° E

METAR

LJLJ 252300Z 18001KT 9999 SCT033 14/14 Q1021 NOSIG

Decode

TAF

TAF LJLJ 252000Z 2521/2621 29003KT 9999 FEW040 PROB40 TEMPO 2521/2610 BKN030 PROB30 TEMPO 2602/2607 0800 FG VV001 BECMG 2609/2611 12005KT PROB40 TEMPO 2611/2618 SHRA SCT050TCU BKN060 PROB30 TEMPO 2612/2617 FEW050CB BKN060

Decode

Departure Runways

ID Width Length Bearing (true) Bearing (mag) Surface Threshold Offset Overrun Length
13 148 ft / 45 m 10,811 ft / 3,295 m 126.47° 122.76° Asphalt 0 ft / 0 m 0 ft / 0 m
31 148 ft / 45 m 10,811 ft / 3,295 m 306.49° 302.78° Asphalt 0 ft / 0 m 0 ft / 0 m

LJPZ

Details ICAO LJPZ (POW)
Name PORTOROZ
Region Slovenia
Timezone Europe/Ljubljana (UTC+2.0)
Stats Elevation 7 ft / 2 m (AMSL)
Location 45.472445° 13.615681°
Runways 1
Magnetic Variation 3.494° E

METAR

LJPZ 252300Z AUTO 10003KT 9999 NCD 17/15 Q1017

Decode

TAF

Not found

Destination Runways

ID Width Length Bearing (true) Bearing (mag) Surface Threshold Offset Overrun Length
15 98 ft / 30 m 3,939 ft / 1,201 m 151.28° 147.79° Asphalt 0 ft / 0 m 0 ft / 0 m
33 98 ft / 30 m 3,939 ft / 1,201 m 331.29° 327.80° Asphalt 751 ft / 229 m 0 ft / 0 m

Popular Alternatives